Date,TemperatureHighF,TemperatureAvgF,TemperatureLowF,DewpointHighF,DewpointAvgF,DewpointLowF,HumidityHigh,HumidityAvg,HumidityLow,PressureMaxIn,PressureMinIn,WindSpeedMaxMPH,WindSpeedAvgMPH,GustSpeedMaxMPH,PrecipitationSumIn
2013-2-1,59.0,40.8,24.8,36.7,27.0,18.3,78,60,38,30.35,30.09,13,4,17,0.00
2013-2-2,69.3,49.0,33.4,43.4,36.1,31.9,99,68,31,30.25,30.06,11,2,16,0.00
2013-2-3,70.9,51.0,31.3,45.2,34.7,25.8,99,63,24,30.25,29.90,10,2,14,0.00
2013-2-4,68.5,57.6,48.2,59.3,49.9,35.5,99,78,48,29.90,29.73,20,6,27,0.07
2013-2-5,59.7,53.0,46.0,59.4,52.7,45.8,99,99,99,29.96,29.83,5,2,9,0.00
2013-2-6,64.9,55.1,46.0,60.7,54.6,45.8,99,98,85,29.96,29.83,11,4,20,0.02
2013-2-7,74.1,60.5,50.7,63.4,57.7,46.8,99,91,70,30.03,29.73,21,7,33,0.00
2013-2-8,66.6,50.8,37.9,47.1,39.9,29.6,99,73,31,30.21,30.02,13,5,19,0.00
2013-2-9,54.0,46.5,41.9,53.7,45.9,40.8,99,98,94,30.06,29.68,17,7,26,0.02
2013-2-10,69.3,56.7,39.7,61.4,41.5,22.8,99,65,21,29.97,29.54,27,5,36,0.50
2013-2-11,59.4,47.9,39.2,39.9,35.4,30.4,93,65,38,30.12,29.96,11,2,16,0.00
2013-2-12,44.4,42.8,39.4,44.2,42.1,37.8,99,97,87,30.02,29.78,17,4,23,0.80
2013-2-13,60.4,46.6,38.3,42.8,40.1,37.7,99,81,47,30.07,29.93,11,4,15,0.02
2013-2-14,72.9,51.4,36.7,45.4,37.7,25.5,99,69,21,30.06,29.92,11,2,17,0.00
2013-2-15,52.2,44.1,30.7,40.8,30.2,16.8,92,61,31,30.29,30.06,15,6,22,0.04
2013-2-16,58.5,42.1,29.8,35.5,29.2,19.7,93,65,29,30.33,30.08,11,3,15,0.00
2013-2-17,71.4,53.1,34.7,39.4,33.0,21.7,89,54,20,30.08,29.83,23,8,31,0.00
2013-2-18,76.6,60.8,45.9,60.7,44.6,33.5,88,58,33,30.06,29.64,25,12,38,0.00
2013-2-19,62.6,49.2,34.9,35.1,28.5,15.7,82,51,20,30.28,30.05,10,3,16,0.00
2013-2-20,52.9,40.8,36.0,52.6,37.1,28.7,99,88,46,30.16,29.80,16,8,24,0.50
2013-2-21,61.9,44.5,35.8,50.6,39.6,33.1,99,85,46,29.87,29.57,15,6,25,0.14
2013-2-22,49.8,37.1,27.0,35.7,27.4,21.3,95,70,44,30.09,29.86,11,4,17,0.00
2013-2-23,60.6,38.9,25.7,32.9,28.5,24.3,96,71,29,30.03,29.86,9,2,12,0.00
2013-2-24,68.2,50.3,30.6,46.4,39.1,28.1,99,69,40,29.87,29.59,17,4,26,0.00
2013-2-25,57.2,48.8,39.0,52.1,42.9,36.3,99,81,55,29.61,29.35,18,6,25,0.04
2013-2-26,58.5,45.1,35.6,39.3,35.2,31.0,95,72,41,29.84,29.50,22,10,30,0.00
2013-2-27,57.0,43.2,31.3,41.2,31.6,21.6,99,68,32,30.13,29.82,20,6,25,0.00
2013-2-28,58.8,43.5,31.5,36.5,30.5,24.2,97,65,30,30.19,30.07,18,7,29,0.00